sensor_id;sensor_type;location;lat;lon;timestamp;temperature;humidity
1778;DHT22;886;50.082;8.222;2023-02-13T00:00:48;7.70;99.90
1778;DHT22;886;50.082;8.222;2023-02-13T00:03:16;7.60;99.90
1778;DHT22;886;50.082;8.222;2023-02-13T00:05:43;7.50;99.90
1778;DHT22;886;50.082;8.222;2023-02-13T00:08:10;7.40;99.90
1778;DHT22;886;50.082;8.222;2023-02-13T00:10:38;7.00;99.90
1778;DHT22;886;50.082;8.222;2023-02-13T00:13:05;7.00;99.90
1778;DHT22;886;50.082;8.222;2023-02-13T00:15:32;6.90;99.90
1778;DHT22;886;50.082;8.222;2023-02-13T00:18:01;6.80;99.90
1778;DHT22;886;50.082;8.222;2023-02-13T00:20:29;6.70;99.90
1778;DHT22;886;50.082;8.222;2023-02-13T00:22:57;6.60;99.90
1778;DHT22;886;50.082;8.222;2023-02-13T00:25:24;6.60;99.90
1778;DHT22;886;50.082;8.222;2023-02-13T00:27:51;6.60;99.90
1778;DHT22;886;50.082;8.222;2023-02-13T00:30:20;6.40;99.90
1778;DHT22;886;50.082;8.222;2023-02-13T00:32:47;6.40;99.90
1778;DHT22;886;50.082;8.222;2023-02-13T00:35:16;6.40;99.90
1778;DHT22;886;50.082;8.222;2023-02-13T00:37:43;6.40;99.90
1778;DHT22;886;50.082;8.222;2023-02-13T00:40:11;6.30;99.90
1778;DHT22;886;50.082;8.222;2023-02-13T00:42:39;6.40;99.90
1778;DHT22;886;50.082;8.222;2023-02-13T00:45:07;6.50;99.90
1778;DHT22;886;50.082;8.222;2023-02-13T00:47:35;6.40;99.90
1778;DHT22;886;50.082;8.222;2023-02-13T00:50:02;6.40;99.90
1778;DHT22;886;50.082;8.222;2023-02-13T00:52:32;6.20;99.90
1778;DHT22;886;50.082;8.222;2023-02-13T00:55:00;6.10;99.90
1778;DHT22;886;50.082;8.222;2023-02-13T00:57:27;6.00;99.90
1778;DHT22;886;50.082;8.222;2023-02-13T00:59:56;5.90;99.90
1778;DHT22;886;50.082;8.222;2023-02-13T01:02:26;5.90;99.90
1778;DHT22;886;50.082;8.222;2023-02-13T01:04:53;5.90;99.90
1778;DHT22;886;50.082;8.222;2023-02-13T01:07:21;5.80;99.90
1778;DHT22;886;50.082;8.222;2023-02-13T01:09:49;5.90;99.90
1778;DHT22;886;50.082;8.222;2023-02-13T01:12:16;5.80;99.90
1778;DHT22;886;50.082;8.222;2023-02-13T01:14:44;5.70;99.90
1778;DHT22;886;50.082;8.222;2023-02-13T01:17:13;5.80;99.90
1778;DHT22;886;50.082;8.222;2023-02-13T01:19:42;5.80;99.90
1778;DHT22;886;50.082;8.222;2023-02-13T01:22:12;5.80;99.90
1778;DHT22;886;50.082;8.222;2023-02-13T01:24:43;5.80;99.90
1778;DHT22;886;50.082;8.222;2023-02-13T01:27:13;5.70;99.90
1778;DHT22;886;50.082;8.222;2023-02-13T01:29:42;5.60;99.90
1778;DHT22;886;50.082;8.222;2023-02-13T01:32:10;5.50;99.90
1778;DHT22;886;50.082;8.222;2023-02-13T01:34:37;5.50;99.90
1778;DHT22;886;50.082;8.222;2023-02-13T01:37:07;5.70;99.90
1778;DHT22;886;50.082;8.222;2023-02-13T01:39:34;5.70;99.90
1778;DHT22;886;50.082;8.222;2023-02-13T01:42:02;5.60;99.90
1778;DHT22;886;50.082;8.222;2023-02-13T01:44:49;5.50;99.90
1778;DHT22;886;50.082;8.222;2023-02-13T01:47:24;5.40;99.90
1778;DHT22;886;50.082;8.222;2023-02-13T01:50:01;5.40;99.90
1778;DHT22;886;50.082;8.222;2023-02-13T01:52:30;5.40;99.90
1778;DHT22;886;50.082;8.222;2023-02-13T01:54:58;5.40;99.90
1778;DHT22;886;50.082;8.222;2023-02-13T01:57:27;5.30;99.90
1778;DHT22;886;50.082;8.222;2023-02-13T02:00:00;5.30;99.90
1778;DHT22;886;50.082;8.222;2023-02-13T02:02:32;5.20;99.90
1778;DHT22;886;50.082;8.222;2023-02-13T02:05:01;5.30;99.90
1778;DHT22;886;50.082;8.222;2023-02-13T02:07:30;5.00;99.90
1778;DHT22;886;50.082;8.222;2023-02-13T02:09:59;5.20;99.90
1778;DHT22;886;50.082;8.222;2023-02-13T02:12:33;5.10;99.90
1778;DHT22;886;50.082;8.222;2023-02-13T02:15:07;5.10;99.90
1778;DHT22;886;50.082;8.222;2023-02-13T02:17:35;5.00;99.90
1778;DHT22;886;50.082;8.222;2023-02-13T02:20:13;5.00;99.90
1778;DHT22;886;50.082;8.222;2023-02-13T02:26:38;4.90;99.90
1778;DHT22;886;50.082;8.222;2023-02-13T02:29:55;4.90;99.90
1778;DHT22;886;50.082;8.222;2023-02-13T02:33:05;5.00;99.90
1778;DHT22;886;50.082;8.222;2023-02-13T02:35:45;4.80;99.90
1778;DHT22;886;50.082;8.222;2023-02-13T02:38:26;4.80;99.90
1778;DHT22;886;50.082;8.222;2023-02-13T02:41:07;4.70;99.90
1778;DHT22;886;50.082;8.222;2023-02-13T02:43:47;4.60;99.90
1778;DHT22;886;50.082;8.222;2023-02-13T02:46:26;4.80;99.90
1778;DHT22;886;50.082;8.222;2023-02-13T02:49:04;4.80;99.90
1778;DHT22;886;50.082;8.222;2023-02-13T02:51:55;4.70;99.90
1778;DHT22;886;50.082;8.222;2023-02-13T02:54:29;4.60;99.90
1778;DHT22;886;50.082;8.222;2023-02-13T02:57:29;4.70;99.90
1778;DHT22;886;50.082;8.222;2023-02-13T03:00:20;4.70;99.90
1778;DHT22;886;50.082;8.222;2023-02-13T03:03:14;4.50;99.90
1778;DHT22;886;50.082;8.222;2023-02-13T03:06:08;4.40;99.90
1778;DHT22;886;50.082;8.222;2023-02-13T03:08:41;4.30;99.90
1778;DHT22;886;50.082;8.222;2023-02-13T03:11:28;4.40;99.90
1778;DHT22;886;50.082;8.222;2023-02-13T03:14:19;4.50;99.90
1778;DHT22;886;50.082;8.222;2023-02-13T03:16:47;4.30;99.90
1778;DHT22;886;50.082;8.222;2023-02-13T03:19:46;4.20;99.90
1778;DHT22;886;50.082;8.222;2023-02-13T03:22:48;4.30;99.90
1778;DHT22;886;50.082;8.222;2023-02-13T03:25:29;4.30;99.90
1778;DHT22;886;50.082;8.222;2023-02-13T03:28:07;4.20;99.90
1778;DHT22;886;50.082;8.222;2023-02-13T03:31:02;4.30;99.90
1778;DHT22;886;50.082;8.222;2023-02-13T03:33:48;4.30;99.90
1778;DHT22;886;50.082;8.222;2023-02-13T03:36:33;4.40;99.90
1778;DHT22;886;50.082;8.222;2023-02-13T03:39:39;4.30;99.90
1778;DHT22;886;50.082;8.222;2023-02-13T03:42:14;4.20;99.90
1778;DHT22;886;50.082;8.222;2023-02-13T03:44:48;4.20;99.90
1778;DHT22;886;50.082;8.222;2023-02-13T03:47:40;4.20;99.90
1778;DHT22;886;50.082;8.222;2023-02-13T03:50:10;4.40;99.90
1778;DHT22;886;50.082;8.222;2023-02-13T03:52:45;4.30;99.90
1778;DHT22;886;50.082;8.222;2023-02-13T03:55:21;4.20;99.90
1778;DHT22;886;50.082;8.222;2023-02-13T03:58:13;4.20;99.90
1778;DHT22;886;50.082;8.222;2023-02-13T04:01:02;4.00;99.90
1778;DHT22;886;50.082;8.222;2023-02-13T04:03:34;4.10;99.90
1778;DHT22;886;50.082;8.222;2023-02-13T04:06:08;4.10;99.90
1778;DHT22;886;50.082;8.222;2023-02-13T04:08:37;4.20;99.90
1778;DHT22;886;50.082;8.222;2023-02-13T04:11:11;4.10;99.90
1778;DHT22;886;50.082;8.222;2023-02-13T04:13:44;4.10;99.90
1778;DHT22;886;50.082;8.222;2023-02-13T04:16:16;4.30;99.90
1778;DHT22;886;50.082;8.222;2023-02-13T04:18:46;4.20;99.90
1778;DHT22;886;50.082;8.222;2023-02-13T04:21:14;4.10;99.90
1778;DHT22;886;50.082;8.222;2023-02-13T04:23:41;4.10;99.90
1778;DHT22;886;50.082;8.222;2023-02-13T04:26:14;4.10;99.90
1778;DHT22;886;50.082;8.222;2023-02-13T04:28:43;4.10;99.90
1778;DHT22;886;50.082;8.222;2023-02-13T04:31:10;4.10;99.90
1778;DHT22;886;50.082;8.222;2023-02-13T04:33:38;4.00;99.90
1778;DHT22;886;50.082;8.222;2023-02-13T04:36:05;4.10;99.90
1778;DHT22;886;50.082;8.222;2023-02-13T04:38:33;4.10;99.90
1778;DHT22;886;50.082;8.222;2023-02-13T04:41:00;3.90;99.90
1778;DHT22;886;50.082;8.222;2023-02-13T04:43:29;4.00;99.90
1778;DHT22;886;50.082;8.222;2023-02-13T04:45:56;4.10;99.90
1778;DHT22;886;50.082;8.222;2023-02-13T04:48:24;4.10;99.90
1778;DHT22;886;50.082;8.222;2023-02-13T04:50:51;3.90;99.90
1778;DHT22;886;50.082;8.222;2023-02-13T04:53:19;3.90;99.90
1778;DHT22;886;50.082;8.222;2023-02-13T04:55:46;3.90;99.90
1778;DHT22;886;50.082;8.222;2023-02-13T04:58:13;3.80;99.90
1778;DHT22;886;50.082;8.222;2023-02-13T05:00:42;3.90;99.90
1778;DHT22;886;50.082;8.222;2023-02-13T05:03:11;3.90;99.90
1778;DHT22;886;50.082;8.222;2023-02-13T05:05:39;3.90;99.90
1778;DHT22;886;50.082;8.222;2023-02-13T05:08:07;3.90;99.90
1778;DHT22;886;50.082;8.222;2023-02-13T05:10:34;3.90;99.90
1778;DHT22;886;50.082;8.222;2023-02-13T05:13:02;3.80;99.90
1778;DHT22;886;50.082;8.222;2023-02-13T05:15:29;3.80;99.90
1778;DHT22;886;50.082;8.222;2023-02-13T05:17:58;3.70;99.90
1778;DHT22;886;50.082;8.222;2023-02-13T05:20:27;3.70;99.90
1778;DHT22;886;50.082;8.222;2023-02-13T05:22:55;3.50;99.90
1778;DHT22;886;50.082;8.222;2023-02-13T05:25:41;3.50;99.90
1778;DHT22;886;50.082;8.222;2023-02-13T05:28:08;3.60;99.90
1778;DHT22;886;50.082;8.222;2023-02-13T05:30:56;3.70;99.90
1778;DHT22;886;50.082;8.222;2023-02-13T05:33:25;3.70;99.90
1778;DHT22;886;50.082;8.222;2023-02-13T05:35:53;3.80;99.90
1778;DHT22;886;50.082;8.222;2023-02-13T05:38:20;3.70;99.90
1778;DHT22;886;50.082;8.222;2023-02-13T05:40:47;3.60;99.90
1778;DHT22;886;50.082;8.222;2023-02-13T05:43:15;3.70;99.90
1778;DHT22;886;50.082;8.222;2023-02-13T05:45:42;3.70;99.90
1778;DHT22;886;50.082;8.222;2023-02-13T05:48:09;3.70;99.90
1778;DHT22;886;50.082;8.222;2023-02-13T05:50:37;3.70;99.90
1778;DHT22;886;50.082;8.222;2023-02-13T05:53:05;3.70;99.90
1778;DHT22;886;50.082;8.222;2023-02-13T05:55:32;3.50;99.90
1778;DHT22;886;50.082;8.222;2023-02-13T05:57:59;3.50;99.90
1778;DHT22;886;50.082;8.222;2023-02-13T06:00:26;3.40;99.90
1778;DHT22;886;50.082;8.222;2023-02-13T06:02:53;3.40;99.90
1778;DHT22;886;50.082;8.222;2023-02-13T06:05:20;3.50;99.90
1778;DHT22;886;50.082;8.222;2023-02-13T06:07:49;3.50;99.90
1778;DHT22;886;50.082;8.222;2023-02-13T06:10:16;3.50;99.90
1778;DHT22;886;50.082;8.222;2023-02-13T06:12:44;3.50;99.90
1778;DHT22;886;50.082;8.222;2023-02-13T06:15:11;3.40;99.90
1778;DHT22;886;50.082;8.222;2023-02-13T06:17:38;3.50;99.90
1778;DHT22;886;50.082;8.222;2023-02-13T06:20:07;3.50;99.90
1778;DHT22;886;50.082;8.222;2023-02-13T06:22:35;3.40;99.90
1778;DHT22;886;50.082;8.222;2023-02-13T06:25:04;3.50;99.90
1778;DHT22;886;50.082;8.222;2023-02-13T06:27:32;3.50;99.90
1778;DHT22;886;50.082;8.222;2023-02-13T06:29:59;3.60;99.90
1778;DHT22;886;50.082;8.222;2023-02-13T06:32:26;3.50;99.90
1778;DHT22;886;50.082;8.222;2023-02-13T06:34:53;3.50;99.90
1778;DHT22;886;50.082;8.222;2023-02-13T06:37:21;3.30;99.90
1778;DHT22;886;50.082;8.222;2023-02-13T06:39:50;3.30;99.90
1778;DHT22;886;50.082;8.222;2023-02-13T06:42:18;3.30;99.90
1778;DHT22;886;50.082;8.222;2023-02-13T06:44:46;3.20;99.90
1778;DHT22;886;50.082;8.222;2023-02-13T06:47:13;3.20;99.90
1778;DHT22;886;50.082;8.222;2023-02-13T06:49:41;3.30;99.90
1778;DHT22;886;50.082;8.222;2023-02-13T06:52:08;3.30;99.90
1778;DHT22;886;50.082;8.222;2023-02-13T06:54:35;3.30;99.90
1778;DHT22;886;50.082;8.222;2023-02-13T06:57:13;3.30;99.90
1778;DHT22;886;50.082;8.222;2023-02-13T06:59:42;3.30;99.90
1778;DHT22;886;50.082;8.222;2023-02-13T07:02:10;3.30;99.90
1778;DHT22;886;50.082;8.222;2023-02-13T07:04:38;3.40;99.90
1778;DHT22;886;50.082;8.222;2023-02-13T07:07:05;3.30;99.90
1778;DHT22;886;50.082;8.222;2023-02-13T07:09:32;3.30;99.90
1778;DHT22;886;50.082;8.222;2023-02-13T07:12:02;3.30;99.90
1778;DHT22;886;50.082;8.222;2023-02-13T07:14:33;3.50;99.90
1778;DHT22;886;50.082;8.222;2023-02-13T07:17:01;3.50;99.90
1778;DHT22;886;50.082;8.222;2023-02-13T07:19:29;3.40;99.90
1778;DHT22;886;50.082;8.222;2023-02-13T07:21:56;3.60;99.90
1778;DHT22;886;50.082;8.222;2023-02-13T07:24:23;3.50;99.90
1778;DHT22;886;50.082;8.222;2023-02-13T07:26:53;3.60;99.90
1778;DHT22;886;50.082;8.222;2023-02-13T07:29:24;3.50;99.90
1778;DHT22;886;50.082;8.222;2023-02-13T07:31:52;3.50;99.90
1778;DHT22;886;50.082;8.222;2023-02-13T07:34:21;3.50;99.90
1778;DHT22;886;50.082;8.222;2023-02-13T07:36:49;3.50;99.90
1778;DHT22;886;50.082;8.222;2023-02-13T07:39:16;3.40;99.90
1778;DHT22;886;50.082;8.222;2023-02-13T07:41:44;3.50;99.90
1778;DHT22;886;50.082;8.222;2023-02-13T07:44:11;3.50;99.90
1778;DHT22;886;50.082;8.222;2023-02-13T07:46:38;3.60;99.90
1778;DHT22;886;50.082;8.222;2023-02-13T07:49:06;3.60;99.90
1778;DHT22;886;50.082;8.222;2023-02-13T07:51:34;3.80;99.90
1778;DHT22;886;50.082;8.222;2023-02-13T07:54:02;3.90;99.90
1778;DHT22;886;50.082;8.222;2023-02-13T07:56:29;3.90;99.90
1778;DHT22;886;50.082;8.222;2023-02-13T07:58:56;4.00;99.90
1778;DHT22;886;50.082;8.222;2023-02-13T08:01:23;4.10;99.90
1778;DHT22;886;50.082;8.222;2023-02-13T08:03:51;4.10;99.90
1778;DHT22;886;50.082;8.222;2023-02-13T08:06:19;4.10;99.90
1778;DHT22;886;50.082;8.222;2023-02-13T08:08:48;4.20;99.90
1778;DHT22;886;50.082;8.222;2023-02-13T08:11:35;4.20;99.90
1778;DHT22;886;50.082;8.222;2023-02-13T08:14:21;4.30;99.90
1778;DHT22;886;50.082;8.222;2023-02-13T08:16:49;4.40;99.90
1778;DHT22;886;50.082;8.222;2023-02-13T08:19:16;4.50;99.90
1778;DHT22;886;50.082;8.222;2023-02-13T08:21:44;4.50;99.90
1778;DHT22;886;50.082;8.222;2023-02-13T08:24:15;4.70;99.90
1778;DHT22;886;50.082;8.222;2023-02-13T08:26:43;4.80;99.90
1778;DHT22;886;50.082;8.222;2023-02-13T08:29:11;4.90;99.90
1778;DHT22;886;50.082;8.222;2023-02-13T08:31:38;4.90;99.90
1778;DHT22;886;50.082;8.222;2023-02-13T08:34:05;5.10;99.90
1778;DHT22;886;50.082;8.222;2023-02-13T08:36:32;5.20;99.90
1778;DHT22;886;50.082;8.222;2023-02-13T08:39:00;5.30;99.90
1778;DHT22;886;50.082;8.222;2023-02-13T08:41:29;5.40;99.90
1778;DHT22;886;50.082;8.222;2023-02-13T08:43:56;5.50;99.90
1778;DHT22;886;50.082;8.222;2023-02-13T08:46:26;5.60;99.90
1778;DHT22;886;50.082;8.222;2023-02-13T08:48:53;5.60;99.90
1778;DHT22;886;50.082;8.222;2023-02-13T08:51:21;5.70;99.90
1778;DHT22;886;50.082;8.222;2023-02-13T08:53:48;5.80;99.90
1778;DHT22;886;50.082;8.222;2023-02-13T08:56:16;6.00;99.90
1778;DHT22;886;50.082;8.222;2023-02-13T08:58:47;6.30;99.90
1778;DHT22;886;50.082;8.222;2023-02-13T09:01:15;6.50;99.90
1778;DHT22;886;50.082;8.222;2023-02-13T09:03:43;6.50;99.90
1778;DHT22;886;50.082;8.222;2023-02-13T09:06:10;6.60;99.90
1778;DHT22;886;50.082;8.222;2023-02-13T09:08:38;6.60;99.90
1778;DHT22;886;50.082;8.222;2023-02-13T09:11:05;6.70;99.90
1778;DHT22;886;50.082;8.222;2023-02-13T09:13:33;6.80;99.90
1778;DHT22;886;50.082;8.222;2023-02-13T09:16:06;6.80;99.90
1778;DHT22;886;50.082;8.222;2023-02-13T09:18:34;6.90;99.90
1778;DHT22;886;50.082;8.222;2023-02-13T09:21:03;7.00;99.90
1778;DHT22;886;50.082;8.222;2023-02-13T09:23:33;7.10;99.90
1778;DHT22;886;50.082;8.222;2023-02-13T09:26:03;7.20;99.90
1778;DHT22;886;50.082;8.222;2023-02-13T09:28:33;7.30;99.90
1778;DHT22;886;50.082;8.222;2023-02-13T09:31:06;7.40;99.90
1778;DHT22;886;50.082;8.222;2023-02-13T09:33:34;7.50;99.90
1778;DHT22;886;50.082;8.222;2023-02-13T09:36:06;7.60;99.90
1778;DHT22;886;50.082;8.222;2023-02-13T09:38:35;7.70;99.90
1778;DHT22;886;50.082;8.222;2023-02-13T09:41:08;7.80;99.90
1778;DHT22;886;50.082;8.222;2023-02-13T09:43:43;7.90;99.90
1778;DHT22;886;50.082;8.222;2023-02-13T09:46:16;8.00;99.90
1778;DHT22;886;50.082;8.222;2023-02-13T09:48:48;8.10;99.90
1778;DHT22;886;50.082;8.222;2023-02-13T09:51:19;8.10;99.90
1778;DHT22;886;50.082;8.222;2023-02-13T09:53:52;8.10;99.90
1778;DHT22;886;50.082;8.222;2023-02-13T09:56:26;8.10;99.90
1778;DHT22;886;50.082;8.222;2023-02-13T09:59:14;8.20;99.90
1778;DHT22;886;50.082;8.222;2023-02-13T10:01:57;8.30;99.90
1778;DHT22;886;50.082;8.222;2023-02-13T10:04:31;8.40;99.90
1778;DHT22;886;50.082;8.222;2023-02-13T10:07:12;8.50;99.90
1778;DHT22;886;50.082;8.222;2023-02-13T10:09:50;8.70;99.90
1778;DHT22;886;50.082;8.222;2023-02-13T10:12:54;8.70;99.90
1778;DHT22;886;50.082;8.222;2023-02-13T10:15:36;8.70;99.90
1778;DHT22;886;50.082;8.222;2023-02-13T10:18:16;8.80;99.90
1778;DHT22;886;50.082;8.222;2023-02-13T10:20:49;9.00;99.90
1778;DHT22;886;50.082;8.222;2023-02-13T10:23:23;9.00;99.90
1778;DHT22;886;50.082;8.222;2023-02-13T10:25:55;9.00;99.90
1778;DHT22;886;50.082;8.222;2023-02-13T10:28:31;9.10;99.90
1778;DHT22;886;50.082;8.222;2023-02-13T10:31:04;9.30;99.90
1778;DHT22;886;50.082;8.222;2023-02-13T10:33:40;9.30;99.90
1778;DHT22;886;50.082;8.222;2023-02-13T10:36:17;9.40;99.90
1778;DHT22;886;50.082;8.222;2023-02-13T10:38:55;9.60;99.90
1778;DHT22;886;50.082;8.222;2023-02-13T10:45:00;9.90;99.90
1778;DHT22;886;50.082;8.222;2023-02-13T10:47:44;9.90;99.90
1778;DHT22;886;50.082;8.222;2023-02-13T10:50:34;9.90;99.90
1778;DHT22;886;50.082;8.222;2023-02-13T10:53:12;10.00;99.90
1778;DHT22;886;50.082;8.222;2023-02-13T10:55:59;10.00;99.90
1778;DHT22;886;50.082;8.222;2023-02-13T10:58:43;10.00;99.90
1778;DHT22;886;50.082;8.222;2023-02-13T11:01:20;10.00;99.90
1778;DHT22;886;50.082;8.222;2023-02-13T11:04:04;10.10;99.90
1778;DHT22;886;50.082;8.222;2023-02-13T11:06:35;10.00;99.90
1778;DHT22;886;50.082;8.222;2023-02-13T11:09:04;10.10;99.90
1778;DHT22;886;50.082;8.222;2023-02-13T11:11:34;10.10;99.90
1778;DHT22;886;50.082;8.222;2023-02-13T11:14:11;10.10;99.90
1778;DHT22;886;50.082;8.222;2023-02-13T11:16:46;10.00;99.90
1778;DHT22;886;50.082;8.222;2023-02-13T11:19:18;10.10;99.90
1778;DHT22;886;50.082;8.222;2023-02-13T11:21:53;10.10;99.90
1778;DHT22;886;50.082;8.222;2023-02-13T11:24:23;10.10;99.90
1778;DHT22;886;50.082;8.222;2023-02-13T11:26:53;10.20;99.90
1778;DHT22;886;50.082;8.222;2023-02-13T11:29:27;10.20;99.90
1778;DHT22;886;50.082;8.222;2023-02-13T11:32:19;10.20;99.90
1778;DHT22;886;50.082;8.222;2023-02-13T11:34:48;10.30;99.90
1778;DHT22;886;50.082;8.222;2023-02-13T11:37:25;10.30;99.90
1778;DHT22;886;50.082;8.222;2023-02-13T11:39:54;10.30;99.90
1778;DHT22;886;50.082;8.222;2023-02-13T11:42:28;10.20;99.90
1778;DHT22;886;50.082;8.222;2023-02-13T11:44:59;10.40;99.90
1778;DHT22;886;50.082;8.222;2023-02-13T11:47:34;10.50;99.90
1778;DHT22;886;50.082;8.222;2023-02-13T11:50:19;10.50;99.90
1778;DHT22;886;50.082;8.222;2023-02-13T11:52:55;10.50;99.90
1778;DHT22;886;50.082;8.222;2023-02-13T11:55:28;10.50;99.90
1778;DHT22;886;50.082;8.222;2023-02-13T11:58:02;10.50;99.90
1778;DHT22;886;50.082;8.222;2023-02-13T12:00:33;10.60;99.90
1778;DHT22;886;50.082;8.222;2023-02-13T12:03:27;10.60;99.90
1778;DHT22;886;50.082;8.222;2023-02-13T12:06:00;10.60;99.90
1778;DHT22;886;50.082;8.222;2023-02-13T12:08:35;10.70;99.90
1778;DHT22;886;50.082;8.222;2023-02-13T12:11:15;10.70;99.90
1778;DHT22;886;50.082;8.222;2023-02-13T12:13:48;10.80;99.90
1778;DHT22;886;50.082;8.222;2023-02-13T12:16:25;10.70;99.90
1778;DHT22;886;50.082;8.222;2023-02-13T12:18:58;10.70;99.90
1778;DHT22;886;50.082;8.222;2023-02-13T12:21:39;10.80;99.90
1778;DHT22;886;50.082;8.222;2023-02-13T12:24:21;10.70;99.90
1778;DHT22;886;50.082;8.222;2023-02-13T12:27:06;10.70;99.90
1778;DHT22;886;50.082;8.222;2023-02-13T12:30:03;10.70;99.90
1778;DHT22;886;50.082;8.222;2023-02-13T12:32:52;10.80;99.90
1778;DHT22;886;50.082;8.222;2023-02-13T12:35:32;10.80;99.90
1778;DHT22;886;50.082;8.222;2023-02-13T12:38:12;10.80;99.90
1778;DHT22;886;50.082;8.222;2023-02-13T12:40:57;10.90;99.90
1778;DHT22;886;50.082;8.222;2023-02-13T12:44:04;11.00;99.90
1778;DHT22;886;50.082;8.222;2023-02-13T12:46:55;11.00;99.90
1778;DHT22;886;50.082;8.222;2023-02-13T12:50:11;11.00;99.90
1778;DHT22;886;50.082;8.222;2023-02-13T12:52:54;11.00;99.90
1778;DHT22;886;50.082;8.222;2023-02-13T12:55:45;11.00;99.90
1778;DHT22;886;50.082;8.222;2023-02-13T12:58:53;11.10;99.80
1778;DHT22;886;50.082;8.222;2023-02-13T13:01:37;11.20;99.60
1778;DHT22;886;50.082;8.222;2023-02-13T13:04:18;11.20;99.80
1778;DHT22;886;50.082;8.222;2023-02-13T13:07:04;11.20;99.90
1778;DHT22;886;50.082;8.222;2023-02-13T13:10:00;11.10;99.90
1778;DHT22;886;50.082;8.222;2023-02-13T13:12:44;11.20;99.90
1778;DHT22;886;50.082;8.222;2023-02-13T13:15:23;11.10;99.90
1778;DHT22;886;50.082;8.222;2023-02-13T13:18:07;11.20;99.90
1778;DHT22;886;50.082;8.222;2023-02-13T13:21:02;11.30;99.90
1778;DHT22;886;50.082;8.222;2023-02-13T13:23:39;11.30;99.90
1778;DHT22;886;50.082;8.222;2023-02-13T13:26:17;11.40;99.90
1778;DHT22;886;50.082;8.222;2023-02-13T13:28:53;11.40;99.60
1778;DHT22;886;50.082;8.222;2023-02-13T13:31:27;11.40;99.80
1778;DHT22;886;50.082;8.222;2023-02-13T13:34:00;11.40;99.50
1778;DHT22;886;50.082;8.222;2023-02-13T13:36:38;11.50;99.20
1778;DHT22;886;50.082;8.222;2023-02-13T13:39:18;11.50;99.20
1778;DHT22;886;50.082;8.222;2023-02-13T13:42:00;11.50;99.20
1778;DHT22;886;50.082;8.222;2023-02-13T13:45:00;11.50;99.30
1778;DHT22;886;50.082;8.222;2023-02-13T13:47:52;11.50;99.30
1778;DHT22;886;50.082;8.222;2023-02-13T13:50:31;11.60;99.10
1778;DHT22;886;50.082;8.222;2023-02-13T13:53:07;11.70;98.90
1778;DHT22;886;50.082;8.222;2023-02-13T13:56:01;11.70;98.90
1778;DHT22;886;50.082;8.222;2023-02-13T13:58:38;11.80;98.70
1778;DHT22;886;50.082;8.222;2023-02-13T14:01:25;11.80;98.10
1778;DHT22;886;50.082;8.222;2023-02-13T14:03:58;11.80;97.50
1778;DHT22;886;50.082;8.222;2023-02-13T14:06:28;11.80;97.70
1778;DHT22;886;50.082;8.222;2023-02-13T14:09:41;11.70;98.00
1778;DHT22;886;50.082;8.222;2023-02-13T14:12:35;11.70;97.80
1778;DHT22;886;50.082;8.222;2023-02-13T14:15:03;11.80;97.40
1778;DHT22;886;50.082;8.222;2023-02-13T14:17:50;11.80;97.10
1778;DHT22;886;50.082;8.222;2023-02-13T14:20:36;11.80;97.30
1778;DHT22;886;50.082;8.222;2023-02-13T14:23:27;11.90;98.00
1778;DHT22;886;50.082;8.222;2023-02-13T14:26:24;12.00;98.10
1778;DHT22;886;50.082;8.222;2023-02-13T14:29:28;11.90;98.30
1778;DHT22;886;50.082;8.222;2023-02-13T14:34:53;11.90;98.50
1778;DHT22;886;50.082;8.222;2023-02-13T14:37:34;11.90;98.60
1778;DHT22;886;50.082;8.222;2023-02-13T14:40:29;11.90;98.70
1778;DHT22;886;50.082;8.222;2023-02-13T14:45:56;11.90;98.90
1778;DHT22;886;50.082;8.222;2023-02-13T14:48:33;11.90;99.10
1778;DHT22;886;50.082;8.222;2023-02-13T14:51:05;11.80;99.10
1778;DHT22;886;50.082;8.222;2023-02-13T14:53:46;11.80;99.00
1778;DHT22;886;50.082;8.222;2023-02-13T14:56:18;11.90;99.30
1778;DHT22;886;50.082;8.222;2023-02-13T14:58:51;12.00;99.20
1778;DHT22;886;50.082;8.222;2023-02-13T15:01:29;11.90;99.10
1778;DHT22;886;50.082;8.222;2023-02-13T15:04:05;11.90;99.10
1778;DHT22;886;50.082;8.222;2023-02-13T15:06:38;11.90;99.10
1778;DHT22;886;50.082;8.222;2023-02-13T15:09:23;11.90;99.10
1778;DHT22;886;50.082;8.222;2023-02-13T15:11:54;11.80;99.10
1778;DHT22;886;50.082;8.222;2023-02-13T15:14:30;11.90;99.00
1778;DHT22;886;50.082;8.222;2023-02-13T15:17:03;11.90;99.00
1778;DHT22;886;50.082;8.222;2023-02-13T15:19:35;11.90;99.00
1778;DHT22;886;50.082;8.222;2023-02-13T15:22:17;11.80;98.80
1778;DHT22;886;50.082;8.222;2023-02-13T15:24:48;11.80;98.70
1778;DHT22;886;50.082;8.222;2023-02-13T15:27:18;11.80;98.70
1778;DHT22;886;50.082;8.222;2023-02-13T15:29:54;11.90;98.60
1778;DHT22;886;50.082;8.222;2023-02-13T15:32:28;11.90;98.60
1778;DHT22;886;50.082;8.222;2023-02-13T15:34:57;11.80;98.80
1778;DHT22;886;50.082;8.222;2023-02-13T15:37:27;11.80;98.70
1778;DHT22;886;50.082;8.222;2023-02-13T15:40:16;11.80;98.50
1778;DHT22;886;50.082;8.222;2023-02-13T15:42:51;11.80;98.40
1778;DHT22;886;50.082;8.222;2023-02-13T15:45:19;11.80;98.40
1778;DHT22;886;50.082;8.222;2023-02-13T15:47:49;11.80;98.40
1778;DHT22;886;50.082;8.222;2023-02-13T15:50:18;11.70;98.40
1778;DHT22;886;50.082;8.222;2023-02-13T15:52:50;11.80;98.30
1778;DHT22;886;50.082;8.222;2023-02-13T15:55:25;11.80;98.10
1778;DHT22;886;50.082;8.222;2023-02-13T15:57:59;11.80;97.90
1778;DHT22;886;50.082;8.222;2023-02-13T16:00:29;11.70;97.90
1778;DHT22;886;50.082;8.222;2023-02-13T16:05:32;11.70;97.70
1778;DHT22;886;50.082;8.222;2023-02-13T16:08:28;11.70;97.60
1778;DHT22;886;50.082;8.222;2023-02-13T16:11:21;11.70;97.50
1778;DHT22;886;50.082;8.222;2023-02-13T16:14:07;11.70;97.60
1778;DHT22;886;50.082;8.222;2023-02-13T16:16:46;11.60;97.80
1778;DHT22;886;50.082;8.222;2023-02-13T16:19:25;11.50;97.90
1778;DHT22;886;50.082;8.222;2023-02-13T16:22:13;11.40;98.00
1778;DHT22;886;50.082;8.222;2023-02-13T16:24:49;11.40;98.10
1778;DHT22;886;50.082;8.222;2023-02-13T16:27:20;11.40;98.00
1778;DHT22;886;50.082;8.222;2023-02-13T16:29:55;11.30;98.10
1778;DHT22;886;50.082;8.222;2023-02-13T16:32:27;11.40;97.90
1778;DHT22;886;50.082;8.222;2023-02-13T16:34:56;11.30;97.80
1778;DHT22;886;50.082;8.222;2023-02-13T16:37:53;11.20;97.70
1778;DHT22;886;50.082;8.222;2023-02-13T16:40:37;11.30;97.80
1778;DHT22;886;50.082;8.222;2023-02-13T16:43:38;11.20;98.00
1778;DHT22;886;50.082;8.222;2023-02-13T16:46:32;11.10;98.10
1778;DHT22;886;50.082;8.222;2023-02-13T16:49:12;11.10;98.10
1778;DHT22;886;50.082;8.222;2023-02-13T16:51:47;11.10;98.10
1778;DHT22;886;50.082;8.222;2023-02-13T16:54:22;11.00;98.20
1778;DHT22;886;50.082;8.222;2023-02-13T16:56:53;11.00;98.20
1778;DHT22;886;50.082;8.222;2023-02-13T16:59:27;11.00;98.50
1778;DHT22;886;50.082;8.222;2023-02-13T17:02:13;10.90;98.50
1778;DHT22;886;50.082;8.222;2023-02-13T17:04:48;10.80;98.50
1778;DHT22;886;50.082;8.222;2023-02-13T17:07:19;10.80;98.60
1778;DHT22;886;50.082;8.222;2023-02-13T17:09:53;10.70;98.90
1778;DHT22;886;50.082;8.222;2023-02-13T17:12:25;10.60;99.20
1778;DHT22;886;50.082;8.222;2023-02-13T17:14:56;10.40;99.60
1778;DHT22;886;50.082;8.222;2023-02-13T17:17:23;10.10;99.90
1778;DHT22;886;50.082;8.222;2023-02-13T17:19:52;9.90;99.90
1778;DHT22;886;50.082;8.222;2023-02-13T17:22:27;9.70;99.90
1778;DHT22;886;50.082;8.222;2023-02-13T17:24:59;9.60;99.90
1778;DHT22;886;50.082;8.222;2023-02-13T17:27:29;9.40;99.90
1778;DHT22;886;50.082;8.222;2023-02-13T17:29:57;9.40;99.90
1778;DHT22;886;50.082;8.222;2023-02-13T17:32:25;9.30;99.90
1778;DHT22;886;50.082;8.222;2023-02-13T17:34:53;9.30;99.90